Nearby METAR Reports

Here are local weather reports from nearby weather stations and airports.

KHFD - Hartford/Brainar, Connecticut, USA
Distance from station: NE 5mi, 8km
Updated: Sat, 11/18/2017 6:53am EST
Clear
Clear
 Wind from calm
Wind: Calm
Temperature: 25°F , -4°C
Dew Point: 21°F , -6°C
Humidity: 86%
Barometer: 30.00 inHg , 1015.9 hPa
Clouds: Clear
Visibility: 9 miles , 14 km
2017/11/18 11:53 KHFD 181153Z 00000KT 9SM CLR M04/M06 A3000 RMK AO2 SNB17E49 SLP157 P0000 60000 T10441061 11017 21044 56005
KMMK - Meriden, Connecticut, USA
Distance from station: SSW 13mi, 21km
Updated: Sat, 11/18/2017 6:53am EST
Clear
Clear
 Wind from calm
Wind: Calm
Temperature: 19°F , -7°C
Dew Point: 18°F , -8°C
Humidity: 93%
Barometer: 29.99 inHg , 1015.6 hPa
Clouds: Clear
Visibility: 10 miles , 16 km
2017/11/18 11:53 KMMK 181153Z AUTO 00000KT 10SM CLR M07/M08 A2999 RMK AO2 SLP158 I1000 I6000 T10671078 11044 21072 57006
 
KBDL - Windsor Locks, Connecticut, USA
Distance from station: N 17mi, 28km
Updated: Sat, 11/18/2017 6:51am EST
Partly cloudy
Partly cloudy
 Wind from calm
Wind: Calm
Temperature: 23°F , -5°C
Dew Point: 18°F , -8°C
Humidity: 80%
Barometer: 29.99 inHg , 1015.6 hPa
Clouds: Partly cloudy
Visibility: 10 miles , 16 km
Cloud details: Few Clouds 12000 ft
Few Clouds 15000 ft
Partly cloudy 22000 ft
2017/11/18 11:51 KBDL 181151Z 00000KT 10SM FEW120 FEW150 SCT220 M05/M08 A2999 RMK AO2 SLP155 T10501078 11028 21061 56004
KSNC - Chester, Connecticut, USA
Distance from station: SSE 24mi, 38km
Updated: Sat, 11/18/2017 7:15am EST
Clear
Clear
 Wind from calm
Wind: Calm
Temperature: 28°F , -2°C
Dew Point: 10°F , -12°C
Humidity: 47%
Barometer: 29.97 inHg , 1014.9 hPa
Clouds: Clear
Visibility: 10 miles , 16 km
2017/11/18 12:15 KSNC 181215Z AUTO 00000KT 10SM CLR M02/M12 A2997 RMK AO2
 
KOXC - Oxford/Waterbury, Connecticut, USA
Distance from station: SW 26mi, 42km
Updated: Sat, 11/18/2017 6:51am EST
Clear
Clear
 Wind from S
Wind: S 3 mph , 6 km/h
Temperature: 25°F , -4°C
Dew Point: 16°F , -9°C
Humidity: 69%
Barometer: 29.96 inHg , 1014.6 hPa
Clouds: Clear
Visibility: 10 miles , 16 km
2017/11/18 11:51 KOXC 181151Z 18003KT 10SM CLR M04/M09 A2996 RMK AO2 SLP167 T10441094 11017 21056 58006
KIJD - Willimantic, Connecticut, USA
Distance from station: E 28mi, 45km
Updated: Sat, 11/18/2017 6:52am EST
Clear
Clear
 Wind from calm
Wind: Calm
Temperature: 23°F , -5°C
Dew Point: 19°F , -7°C
Humidity: 86%
Barometer: 30.00 inHg , 1015.9 hPa
Clouds: Clear
Visibility: 10 miles , 16 km
2017/11/18 11:52 KIJD 181152Z AUTO 00000KT 10SM CLR M05/M07 A3000 RMK AO2 SLP161 T10501067 11028 21056 55002
 
KHVN - New Haven/Tweed, Connecticut, USA
Distance from station: SSW 30mi, 48km
Updated: Sat, 11/18/2017 6:53am EST
Partly cloudy
Partly cloudy
 Wind from calm
Wind: Calm
Temperature: 25°F , -4°C
Dew Point: 18°F , -8°C
Humidity: 74%
Barometer: 30.00 inHg , 1015.9 hPa
Clouds: Partly cloudy
Visibility: 10 miles , 16 km
Cloud details: Partly cloudy 25000 ft
2017/11/18 11:53 KHVN 181153Z 00000KT 10SM SCT250 M04/M08 A3000 RMK AO2 SLP157 T10391078 10028 21044 56004
KBAF - Westfield, Massachusetts, USA
Distance from station: 0 33mi, 54km
Updated: Sat, 11/18/2017 6:53am EST
Clear
Clear
 Wind from calm
Wind: Calm
Temperature: 19°F , -7°C
Dew Point: 18°F , -8°C
Humidity: 93%
Barometer: 29.98 inHg , 1015.2 hPa
Clouds: Clear
Visibility: 10 miles , 16 km
2017/11/18 11:53 KBAF 181153Z 00000KT 10SM CLR M07/M08 A2998 RMK AO2 SLP159 T10671078 11033 21067 56004
 
KCEF - Chicopee/Westove, Massachusetts, USA
Distance from station: NNE 37mi, 60km
Updated: Sat, 11/18/2017 6:56am EST
Partly cloudy
Partly cloudy
 Wind from calm
Wind: Calm
Temperature: 19°F , -7°C
Dew Point: 16°F , -9°C
Humidity: 86%
Barometer: 29.97 inHg , 1014.9 hPa
Clouds: Partly cloudy
Visibility: 10 miles , 16 km
Cloud details: Few Clouds 800 ft
Partly cloudy 17000 ft
2017/11/18 11:56 KCEF 181156Z 00000KT 10SM FEW008 SCT170 M07/M09 A2997 RMK AO2A SLP158 T10721087 11052 21080 55004
KBDR - Bridgeport, Connecticut, USA
Distance from station: SSW 42mi, 67km
Updated: Sat, 11/18/2017 6:52am EST
Clear
Clear
 Wind from calm
Wind: Calm
Temperature: 30°F , -1°C
Dew Point: 18°F , -8°C
Humidity: 59%
Barometer: 29.99 inHg , 1015.6 hPa
Clouds: Clear
Visibility: 10 miles , 16 km
2017/11/18 11:52 KBDR 181152Z 00000KT 10SM CLR M01/M08 A2999 RMK AO2 SLP155 T10111083 10011 21022 58007
 
KGON - Groton/New Londo, Connecticut, USA
Distance from station: SE 42mi, 68km
Updated: Sat, 11/18/2017 6:56am EST
Clear
Clear
 Wind from ENE
Wind: ENE 5 mph , 7 km/h
Temperature: 25°F , -4°C
Wind Chill: 19°F , -7°C
Dew Point: 19°F , -7°C
Humidity: 80%
Barometer: 29.99 inHg , 1015.6 hPa
Clouds: Clear
Visibility: 10 miles , 16 km
2017/11/18 11:56 KGON 181156Z 06004KT 10SM CLR M04/M07 A2999 RMK AO2 SLP156 T10391072 10006 21050 55005
KDXR - Danbury, Connecticut, USA
Distance from station: WSW 45mi, 73km
Updated: Sat, 11/18/2017 6:53am EST
Clear
Clear
 Wind from calm
Wind: Calm
Temperature: 25°F , -4°C
Dew Point: 18°F , -8°C
Humidity: 74%
Barometer: 29.97 inHg , 1014.9 hPa
Clouds: Clear
Visibility: 10 miles , 16 km
2017/11/18 11:53 KDXR 181153Z 00000KT 10SM CLR M04/M08 A2997 RMK AO2 SLP153 T10441078 11011 21061 58008